Here is the Quick Look data you requested

The Data originates at the National Weather Service, and is made available here by the UAlbany Department of Atmospheric and Environmental Sciences

Surface Observations

KDTW 151053Z 23010KT 5SM BR BKN005 OVC040 11/09 A2990 RMK AO2 SLP126 T01110094
 $=
KDTW 151153Z 24009KT 4SM -RA BR BKN008 OVC025 12/09 A2990 RMK AO2 RAB38 SLP127
 P0000 60002 70004 T01170094 10117 20106 53001 $=
KDTW 151239Z 26008KT 2SM -RA BR BKN008 OVC025 12/09 A2991 RMK AO2 TWR VIS 4
 P0001 T01170094 $=
KDTW 151243Z 26011KT 3SM -RA BR SCT009 BKN025 OVC055 12/09 A2991 RMK AO2 TWR
 VIS 4 P0001 T01170094 $=
KDTW 151253Z 27011KT 4SM -RA SCT009 BKN020 OVC035 12/09 A2991 RMK AO2 SLP129
 P0001 T01170089 $=
KDTW 151353Z 26011KT 4SM HZ BKN015 BKN025 OVC045 11/08 A2993 RMK AO2 RAE23
 SLP137 P0000 T01110083 $=
KDTW 151353Z 26011KT 4SM HZ BKN015 BKN025 OVC045 11/08 A2993 RMK AO2 RAE23
 SLP137 P0000 T01110083 /=
KDTW 151438Z 29019G30KT 7SM BKN013 OVC020 11/08 A2995 RMK AO2 PK WND 30030/1438
 RAB1356E24 P0000 T01110083 $=
KDTW 151453Z 29015G25KT 7SM BKN013 OVC020 10/07 A2996 RMK AO2 PK WND 30030/1438
 RAB1356E24B40E50 SLP148 P0000 60001 T01000067 53019 $=
KDTW 151512Z 28014KT 10SM SCT012 BKN025 OVC035 10/07 A2997 RMK AO2 T01000067 $=
KDTW 151543Z 28014KT 10SM SCT020 BKN030 OVC045 11/06 A2998 RMK AO2 T01110061 $=
KDTW 151553Z 28014KT 10SM SCT020 BKN030 OVC070 11/06 A2998 RMK AO2 SLP154
 T01110056=
KDTW 151653Z 29013KT 10SM SCT025 OVC050 11/04 A2998 RMK AO2 PK WND 27027/1642
 SLP153 T01110044=
KDTW 151711Z 28016G27KT 10SM BKN025 OVC035 10/04 A2999 RMK AO2 PK WND
 27027/1704 T01000039 $=
KDTW 151753Z 28018G26KT 10SM BKN025 OVC035 11/03 A2999 RMK AO2 PK WND
 27027/1704 SLP158 60001 T01110033 10128 20100 51010 $=
KDTW 151800Z 29018G26KT 10SM BKN033 OVC040 11/02 A3000 RMK AO2 T01110022=
KDTW 151807Z 27019G29KT 10SM BKN025 OVC041 11/02 A3000 RMK AO2 PK WND
 27029/1805 T01110022=
KDTW 151835Z 29014G23KT 10SM SCT025 BKN040 11/02 A3000 RMK AO2 PK WND
 27029/1805 T01060017 $=
KDTW 151853Z 30016G27KT 10SM FEW025 BKN040 BKN220 12/02 A3001 RMK AO2 PK WND
 27029/1805 SLP162 T01170017 $=
KDTW 151953Z 28018G26KT 10SM FEW040 BKN200 11/00 A3002 RMK AO2 PK WND
 27030/1934 SLP168 T01110000 $=
KDTW 152053Z 27017G24KT 10SM FEW040 BKN200 11/M01 A3004 RMK AO2 PK WND
 29026/2039 SLP173 T01061006 53015 $=
KDTW 152153Z 28016G27KT 10SM FEW040 SCT200 09/M03 A3007 RMK AO2 PK WND
 28027/2145 SLP186 T00891028 $=
KDTW 152253Z 29013G21KT 10SM FEW045 SCT200 07/M04 A3011 RMK AO2 PK WND
 29028/2202 SLP199 T00721039 $=
KDTW 152353Z 28012KT 10SM FEW045 SCT200 06/M04 A3016 RMK AO2 SLP214 T00611039
 10122 20061 53040 $=
KDTW 160053Z 28008KT 10SM FEW200 05/M03 A3019 RMK AO2 SLP225 T00501033 $=
KDTW 160153Z 25007KT 10SM FEW200 04/M03 A3021 RMK AO2 SLP233 T00441033 $=
KDTW 160253Z 24005KT 10SM FEW200 03/M03 A3021 RMK AO2 SLP234 T00331028 51019 $=
KDTW 160353Z 22006KT 10SM FEW200 03/M03 A3022 RMK AO2 SLP237 T00281028 $=
KDTW 160453Z 00000KT 10SM FEW200 02/M03 A3022 RMK AO2 SLP238 T00171028
 401280017 $=
KDTW 160453Z 00000KT 10SM FEW200 02/M03 A3022 RMK AO2 SLP238 T00171028
 401280017 /=
KDTW 160553Z 24005KT 10SM FEW200 01/M03 A3022 RMK AO2 SLP238 T00111028 10061
 20011 50003 $=
KDTW 160653Z 23004KT 10SM FEW200 01/M03 A3023 RMK AO2 SLP239 T00111028 $=
KDTW 160753Z 18004KT 10SM FEW200 01/M03 A3022 RMK AO2 SLP237 T00061028 $=
KDTW 160853Z 21004KT 10SM FEW200 01/M02 A3022 RMK AO2 SLP237 T00061022 58001 $=
KDTW 160953Z 22003KT 10SM FEW200 M01/M03 A3022 RMK AO2 SLP238 T10061028 $=
KDTW 161053Z 20005KT 9SM FEW200 00/M02 A3021 RMK AO2 SLP235 T00001022 $=
KDTW 161153Z 20008KT 7SM FEW200 01/M02 A3020 RMK AO2 SLP230 70001 T00061022
 10011 21006 58007 $=
KDTW 161253Z 22010KT 8SM FEW200 02/M02 A3021 RMK AO2 SLP234 T00221017 $=
KDTW 161353Z 22008KT 10SM FEW200 05/M01 A3020 RMK AO2 SLP230 T00501006 $=
KDTW 161453Z 24015KT 10SM FEW040 FEW200 08/M01 A3017 RMK AO2 SLP221 T00831006
 58008 $=
KDTW 161553Z 24018G27KT 10SM FEW030 FEW200 10/M02 A3014 RMK AO2 PK WND
 24027/1553 SLP209 T01001017 $=
KDTW 161653Z 22017G25KT 10SM FEW200 11/M02 A3011 RMK AO2 PK WND 21027/1638
 SLP200 T01111022 $=
KDTW 161753Z 25018G25KT 10SM FEW150 FEW230 12/M03 A3007 RMK AO2 PK WND
 26028/1724 SLP185 T01221028 10122 20006 58034 $=
KDTW 161853Z 25018G25KT 10SM FEW120 FEW230 13/M02 A3004 RMK AO2 PK WND
 22028/1821 SLP174 T01331022 $=
KDTW 161953Z 24017G26KT 10SM FEW120 FEW250 14/M03 A3002 RMK AO2 PK WND
 23026/1948 SLP169 T01391028 $=
KDTW 162053Z 23017KT 10SM FEW120 FEW250 13/M04 A3000 RMK AO2 SLP162 T01331039
 56022 $=
KDTW 162153Z 23017G24KT 10SM FEW250 13/M03 A2998 RMK AO2 SLP156 T01281033 $=
KDTW 162253Z 22010KT 10SM FEW250 12/M02 A2997 RMK AO2 SLP154 T01171022 $=